Butler, Kentucky
Current Conditions -  °F | °C
As of 2:53 PM on Thursday 18 Dec 2014 (Local Time) from KLUK Reporting Station
Overcast Overcast  
Wind Chill: 30°   Ceiling: 7500
Heat Index: 30°   Visibility: 10mi
Dew Point: 20°   Wind: 0mph
Humidity: 66%   Direction: NA
Pressure: 30.25"   Gusts: NA
Location:  38.79°N, 84.37°W
Report Text: KLUK 181953Z 00000KT 10SM BKN075 OVC095 M01/M07 A3025 RMK AO2 SLP247 T10111067
Loading
Personal Weather Stations






























Interactive Weather Map New forecast layout! Learn more

10-Day Weather Forecast

Advertisements
Track Severe Weather on mobile